Time;durP1;ratioP1;P1;durP2;ratioP2;P2;SDS_P1;SDS_P2;PMS_P1;PMS_P2;Temp;Humidity;BMP_temperature;BMP_pressure;BME280_temperature;BME280_humidity;BME280_pressure;Samples;Min_cycle;Max_cycle;Signal;HPM_P1;HPM_P2
2021/01/09 00:00:14;;;;;;;9.23;5.57;;;-5.10;99.90;;;;;;2064346;28;20170;-69
2021/01/09 00:01:15;;;;;;;9.13;4.88;;;-5.00;99.90;;;;;;2063900;28;20186;-69
2021/01/09 00:02:16;;;;;;;11.10;5.50;;;-5.00;99.90;;;;;;2064268;28;20637;-69
2021/01/09 00:03:16;;;;;;;9.30;5.33;;;-5.00;99.90;;;;;;2064713;28;20201;-69
2021/01/09 00:04:17;;;;;;;9.83;6.03;;;-5.00;99.90;;;;;;2064759;28;20171;-69
2021/01/09 00:05:18;;;;;;;11.33;5.80;;;-4.90;99.90;;;;;;2064805;28;20178;-69
2021/01/09 00:06:18;;;;;;;9.23;5.87;;;-4.80;99.90;;;;;;2064097;28;20174;-69
2021/01/09 00:07:19;;;;;;;10.77;6.07;;;-4.80;99.90;;;;;;2064185;28;20206;-69
2021/01/09 00:08:20;;;;;;;9.85;5.70;;;-4.80;99.90;;;;;;2064320;28;20178;-71
2021/01/09 00:09:21;;;;;;;9.90;5.57;;;-4.90;99.90;;;;;;2064037;28;20725;-69
2021/01/09 00:10:21;;;;;;;8.80;5.50;;;-4.80;99.90;;;;;;2064829;28;20607;-69
2021/01/09 00:11:30;;;;;;;11.57;6.50;;;-4.80;99.90;;;;;;2064625;28;20183;-69
2021/01/09 00:12:31;;;;;;;9.88;5.68;;;-4.70;99.90;;;;;;2064735;28;20174;-69
2021/01/09 00:13:32;;;;;;;13.20;6.03;;;-4.70;99.90;;;;;;2064175;28;20422;-69
2021/01/09 00:14:33;;;;;;;8.70;5.60;;;-4.60;99.90;;;;;;2056145;28;20190;-69
2021/01/09 00:15:33;;;;;;;11.03;5.97;;;-4.50;99.90;;;;;;2064189;28;20218;-69
2021/01/09 00:16:34;;;;;;;8.73;5.47;;;-4.50;99.90;;;;;;2064279;28;20363;-69
2021/01/09 00:17:36;;;;;;;7.73;4.80;;;-4.50;99.90;;;;;;2056043;28;20271;-70
2021/01/09 00:18:37;;;;;;;8.82;5.05;;;-4.40;99.90;;;;;;2056150;28;20245;-69
2021/01/09 00:19:37;;;;;;;7.50;4.43;;;-4.50;99.90;;;;;;2064622;28;20288;-69
2021/01/09 00:20:38;;;;;;;7.70;4.67;;;-4.50;99.90;;;;;;2064241;28;20180;-69
2021/01/09 00:21:39;;;;;;;11.80;5.00;;;-4.50;99.90;;;;;;2055971;28;20233;-69
2021/01/09 00:22:40;;;;;;;8.53;4.63;;;-4.60;99.90;;;;;;2064229;28;20676;-69
2021/01/09 00:23:41;;;;;;;7.05;4.78;;;-4.50;99.90;;;;;;2092057;23;20247;-58
2021/01/09 00:24:41;;;;;;;7.93;4.57;;;-4.40;99.90;;;;;;2081112;28;20268;-56
2021/01/09 00:25:42;;;;;;;8.90;4.90;;;-4.40;99.90;;;;;;2081163;28;20268;-56
2021/01/09 00:26:43;;;;;;;7.33;4.50;;;-4.30;99.90;;;;;;2081221;28;20177;-56
2021/01/09 00:27:45;;;;;;;8.03;4.67;;;-4.40;99.90;;;;;;2081026;28;20415;-57
2021/01/09 00:28:45;;;;;;;8.25;4.32;;;-4.40;99.90;;;;;;2080695;28;20259;-56
2021/01/09 00:29:46;;;;;;;8.07;5.03;;;-4.50;99.90;;;;;;2080639;28;20190;-58
2021/01/09 00:30:47;;;;;;;8.77;5.10;;;-4.60;99.90;;;;;;2080952;28;20188;-57
2021/01/09 00:31:47;;;;;;;7.60;4.60;;;-4.60;99.90;;;;;;2080942;28;20648;-59
2021/01/09 00:32:48;;;;;;;7.33;4.50;;;-4.60;99.90;;;;;;2081068;28;20177;-55
2021/01/09 00:33:49;;;;;;;8.50;5.30;;;-4.50;99.90;;;;;;2080872;28;20203;-58
2021/01/09 00:34:50;;;;;;;8.32;4.97;;;-4.50;99.90;;;;;;2081206;28;20195;-57
2021/01/09 00:35:53;;;;;;;10.07;5.80;;;-4.50;99.90;;;;;;2081024;28;20192;-55
2021/01/09 00:36:54;;;;;;;10.88;5.25;;;-4.50;99.90;;;;;;2081275;28;20187;-57
2021/01/09 00:37:54;;;;;;;10.00;5.23;;;-4.50;99.90;;;;;;2081306;28;20664;-60
2021/01/09 00:38:55;;;;;;;9.23;4.83;;;-4.40;99.90;;;;;;2081005;28;20487;-58
2021/01/09 00:39:56;;;;;;;11.67;5.47;;;-4.40;99.90;;;;;;2080989;28;20177;-57
2021/01/09 00:40:56;;;;;;;7.90;4.50;;;-4.50;99.90;;;;;;2080821;28;20208;-57
2021/01/09 00:42:01;;;;;;;8.90;5.03;;;-4.50;99.90;;;;;;2082680;28;20177;-58
2021/01/09 00:43:02;;;;;;;10.40;5.50;;;-4.50;99.90;;;;;;2082759;28;20652;-60
2021/01/09 00:44:03;;;;;;;10.20;5.63;;;-4.50;99.90;;;;;;2082612;28;20209;-56
2021/01/09 00:45:07;;;;;;;7.85;5.13;;;-4.50;99.90;;;;;;2083065;28;20208;-54
2021/01/09 00:46:16;;;;;;;9.52;5.50;;;-4.40;99.90;;;;;;2082983;28;20187;-54
2021/01/09 00:47:17;;;;;;;7.85;5.22;;;-4.30;99.90;;;;;;2090610;28;20164;-56
2021/01/09 00:48:18;;;;;;;11.13;5.87;;;-4.30;99.90;;;;;;2090571;28;20180;-57
2021/01/09 00:49:18;;;;;;;8.03;5.37;;;-4.20;99.90;;;;;;2082746;28;20238;-54
2021/01/09 00:50:19;;;;;;;10.60;5.70;;;-4.20;99.90;;;;;;2082730;28;20328;-57
2021/01/09 00:51:20;;;;;;;10.37;5.53;;;-4.30;99.90;;;;;;2082538;28;20314;-59
2021/01/09 00:52:20;;;;;;;10.53;5.27;;;-4.20;99.90;;;;;;2082693;28;20227;-57
2021/01/09 00:53:21;;;;;;;9.43;5.33;;;-4.20;99.90;;;;;;2082621;28;20188;-55
2021/01/09 00:54:22;;;;;;;10.33;5.33;;;-4.10;99.90;;;;;;2082686;28;20224;-57
2021/01/09 00:55:23;;;;;;;8.97;5.40;;;-4.20;99.90;;;;;;2082510;28;20574;-55
2021/01/09 00:56:24;;;;;;;9.73;5.73;;;-4.10;99.90;;;;;;2082946;28;20633;-56
2021/01/09 00:57:24;;;;;;;9.67;5.33;;;-4.10;99.90;;;;;;2082627;28;20181;-57
2021/01/09 00:58:25;;;;;;;11.97;5.27;;;-4.00;99.90;;;;;;2082676;28;20173;-57
2021/01/09 00:59:26;;;;;;;9.17;5.73;;;-4.00;99.90;;;;;;2082498;28;20209;-57
2021/01/09 01:00:26;;;;;;;8.27;5.30;;;-4.00;99.90;;;;;;2082580;28;20177;-53
2021/01/09 01:01:27;;;;;;;8.73;5.30;;;-4.00;99.90;;;;;;2082321;28;20196;-56
2021/01/09 01:02:28;;;;;;;9.93;5.80;;;-4.10;99.90;;;;;;2082840;28;20177;-58
2021/01/09 01:03:28;;;;;;;9.63;5.50;;;-4.10;99.90;;;;;;2082558;28;20189;-59
2021/01/09 01:04:29;;;;;;;9.43;5.50;;;-4.10;99.90;;;;;;2082589;28;20170;-56
2021/01/09 01:05:30;;;;;;;10.47;5.27;;;-4.10;99.90;;;;;;2082326;28;20192;-57
2021/01/09 01:06:30;;;;;;;8.63;5.37;;;-4.00;99.90;;;;;;2082551;28;20182;-56
2021/01/09 01:07:34;;;;;;;11.60;5.93;;;-4.00;99.90;;;;;;2082463;28;20186;-57
2021/01/09 01:08:35;;;;;;;9.45;5.20;;;-3.90;99.90;;;;;;2082609;28;20185;-57
2021/01/09 01:09:36;;;;;;;9.33;5.57;;;-3.90;99.90;;;;;;2082645;28;20231;-58
2021/01/09 01:10:36;;;;;;;10.03;5.63;;;-3.90;99.90;;;;;;2082375;28;20649;-59
2021/01/09 01:11:39;;;;;;;10.03;6.03;;;-3.90;99.90;;;;;;2082252;28;20181;-57
2021/01/09 01:12:41;;;;;;;10.13;5.35;;;-3.90;99.90;;;;;;2082712;28;20252;-58
2021/01/09 01:13:42;;;;;;;9.27;5.55;;;-3.90;99.90;;;;;;2082313;28;20323;-59
2021/01/09 01:14:42;;;;;;;9.77;6.33;;;-3.90;99.90;;;;;;2071263;28;20189;-57
2021/01/09 01:15:43;;;;;;;9.70;5.53;;;-3.80;99.90;;;;;;2066043;28;20178;-57
2021/01/09 01:16:49;;;;;;;10.02;5.90;;;-3.80;99.90;;;;;;2065669;28;20219;-56
2021/01/09 01:17:49;;;;;;;10.95;5.57;;;-3.80;99.90;;;;;;2065698;28;20175;-56
2021/01/09 01:18:51;;;;;;;8.97;5.63;;;-3.80;99.90;;;;;;2066061;28;20195;-57
2021/01/09 01:19:52;;;;;;;10.05;5.80;;;-3.90;99.90;;;;;;2065988;28;20210;-56
2021/01/09 01:20:52;;;;;;;9.97;5.33;;;-4.00;99.90;;;;;;2065800;28;20244;-56
2021/01/09 01:21:53;;;;;;;10.40;5.17;;;-4.10;99.90;;;;;;2066076;28;20186;-57
2021/01/09 01:22:54;;;;;;;12.87;6.60;;;-4.10;99.90;;;;;;2066175;28;20171;-58
2021/01/09 01:23:54;;;;;;;9.83;5.60;;;-4.10;99.90;;;;;;2066026;28;20210;-58
2021/01/09 01:24:55;;;;;;;11.60;6.40;;;-4.10;99.90;;;;;;2066282;28;20692;-56
2021/01/09 01:25:56;;;;;;;9.20;5.77;;;-4.10;99.90;;;;;;2066000;28;20270;-56
2021/01/09 01:26:56;;;;;;;10.33;5.83;;;-4.00;99.90;;;;;;2065974;28;20187;-55
2021/01/09 01:27:57;;;;;;;10.23;5.63;;;-4.00;99.90;;;;;;2065988;28;20182;-56
2021/01/09 01:29:00;;;;;;;9.53;5.40;;;-4.00;99.90;;;;;;2066111;28;20673;-55
2021/01/09 01:30:00;;;;;;;10.23;6.38;;;-4.10;99.90;;;;;;2066106;28;20210;-56
2021/01/09 01:31:01;;;;;;;11.37;5.30;;;-4.20;99.90;;;;;;2065859;28;20688;-56
2021/01/09 01:32:02;;;;;;;9.13;5.63;;;-4.20;99.90;;;;;;2065962;28;20198;-56
2021/01/09 01:33:03;;;;;;;8.57;5.37;;;-4.30;99.90;;;;;;2066097;28;20182;-56
2021/01/09 01:34:04;;;;;;;8.82;5.05;;;-4.30;99.90;;;;;;2066002;28;20206;-57
2021/01/09 01:35:06;;;;;;;8.93;5.27;;;-4.30;99.90;;;;;;2065929;28;20647;-56
2021/01/09 01:36:11;;;;;;;8.93;5.13;;;-4.20;99.90;;;;;;2066011;28;20186;-54
2021/01/09 01:37:12;;;;;;;8.02;5.28;;;-4.20;99.90;;;;;;2065848;28;20178;-56
2021/01/09 01:38:12;;;;;;;7.87;3.97;;;-4.10;99.90;;;;;;2065919;28;20183;-57
2021/01/09 01:39:13;;;;;;;8.83;5.60;;;-4.20;99.90;;;;;;2065973;28;20183;-57
2021/01/09 01:40:14;;;;;;;7.67;4.70;;;-4.20;99.90;;;;;;2066043;28;20179;-57
2021/01/09 01:41:14;;;;;;;7.67;4.90;;;-4.30;99.90;;;;;;2065626;28;20229;-56
2021/01/09 01:42:15;;;;;;;8.37;4.97;;;-4.40;99.90;;;;;;2065884;28;20178;-56
2021/01/09 01:43:16;;;;;;;9.20;5.07;;;-4.40;99.90;;;;;;2065753;28;20174;-58
2021/01/09 01:44:17;;;;;;;7.68;4.85;;;-4.40;99.90;;;;;;2066133;28;20175;-57
2021/01/09 01:45:18;;;;;;;7.90;4.73;;;-4.40;99.90;;;;;;2065980;28;20650;-56
2021/01/09 01:46:20;;;;;;;8.48;4.93;;;-4.40;99.90;;;;;;2065989;28;20181;-55
2021/01/09 01:47:21;;;;;;;10.05;4.95;;;-4.50;99.90;;;;;;2065934;28;20261;-58
2021/01/09 01:48:22;;;;;;;8.27;4.90;;;-4.40;99.90;;;;;;2065872;28;20186;-57
2021/01/09 01:49:22;;;;;;;8.07;4.60;;;-4.40;99.90;;;;;;2066075;28;20273;-57
2021/01/09 01:50:23;;;;;;;10.57;5.73;;;-4.40;99.90;;;;;;2065981;28;20214;-54
2021/01/09 01:51:24;;;;;;;8.17;5.03;;;-4.50;99.90;;;;;;2065674;28;20249;-57
2021/01/09 01:52:25;;;;;;;8.27;5.00;;;-4.50;99.90;;;;;;2065844;28;20668;-58
2021/01/09 01:53:29;;;;;;;9.83;5.97;;;-4.50;99.90;;;;;;2065058;28;20658;-57
2021/01/09 01:54:30;;;;;;;9.10;5.65;;;-4.40;99.90;;;;;;2066000;28;20437;-58
2021/01/09 01:55:32;;;;;;;9.00;5.13;;;-4.40;99.90;;;;;;2065845;28;20646;-55
2021/01/09 01:56:32;;;;;;;8.05;5.10;;;-4.30;99.90;;;;;;2065414;28;20558;-59
2021/01/09 01:57:33;;;;;;;8.40;5.33;;;-4.30;99.90;;;;;;2057146;28;20247;-55
2021/01/09 01:58:34;;;;;;;8.57;5.30;;;-4.30;99.90;;;;;;2065282;28;20187;-57
2021/01/09 01:59:39;;;;;;;8.07;5.27;;;-4.30;99.90;;;;;;2065783;28;20686;-57
2021/01/09 02:00:47;;;;;;;9.38;5.78;;;-4.20;99.90;;;;;;2065844;28;20712;-56
2021/01/09 02:01:50;;;;;;;8.00;5.35;;;-4.20;99.90;;;;;;2065679;28;20200;-54
2021/01/09 02:02:52;;;;;;;10.50;5.55;;;-4.20;99.90;;;;;;2065828;28;20190;-58
2021/01/09 02:03:53;;;;;;;10.35;5.90;;;-4.20;99.90;;;;;;2065620;28;20194;-56
2021/01/09 02:05:02;;;;;;;10.98;5.95;;;-4.30;99.90;;;;;;2065947;28;20637;-58
2021/01/09 02:06:24;;;;;;;10.35;5.65;;;-4.30;99.90;;;;;;2065738;28;20405;-55
2021/01/09 02:07:32;;;;;;;9.00;5.43;;;-4.20;99.90;;;;;;2064986;28;20181;-55
2021/01/09 02:08:40;;;;;;;8.73;5.50;;;-4.20;99.90;;;;;;2058125;28;20168;-58
2021/01/09 02:09:47;;;;;;;8.77;5.30;;;-4.20;99.90;;;;;;2058129;28;20180;-56
2021/01/09 02:10:55;;;;;;;8.45;4.88;;;-4.10;99.90;;;;;;2065130;28;20182;-56
2021/01/09 02:12:17;;;;;;;7.53;4.93;;;-4.10;99.90;;;;;;2065038;28;20191;-58
2021/01/09 02:13:31;;;;;;;9.30;4.80;;;-4.10;99.90;;;;;;2065509;28;20174;-57
2021/01/09 02:14:43;;;;;;;7.13;4.55;;;-4.10;99.90;;;;;;2065189;28;20230;-58
2021/01/09 02:15:44;;;;;;;8.30;4.25;;;-4.20;99.90;;;;;;2065568;28;20188;-58
2021/01/09 02:16:44;;;;;;;9.60;5.13;;;-4.10;99.90;;;;;;2065359;28;20552;-59
2021/01/09 02:17:45;;;;;;;10.07;5.80;;;-4.10;99.90;;;;;;2057053;28;20198;-56
2021/01/09 02:18:48;;;;;;;9.05;4.88;;;-4.10;99.90;;;;;;2065134;28;20418;-58
2021/01/09 02:19:50;;;;;;;10.13;5.32;;;-4.10;99.90;;;;;;2065496;28;20287;-58
2021/01/09 02:20:59;;;;;;;9.32;4.95;;;-4.00;99.90;;;;;;2064903;28;20531;-59
2021/01/09 02:22:00;;;;;;;8.02;4.88;;;-4.00;99.90;;;;;;2065305;28;20179;-59
2021/01/09 02:23:02;;;;;;;8.85;4.97;;;-4.10;99.90;;;;;;2057266;28;20237;-59
2021/01/09 02:24:13;;;;;;;7.93;4.80;;;-4.10;99.90;;;;;;2065132;28;20694;-59
2021/01/09 02:25:14;;;;;;;7.32;4.82;;;-4.20;99.90;;;;;;2065961;28;20654;-59
2021/01/09 02:26:15;;;;;;;8.70;5.30;;;-4.20;99.90;;;;;;2065493;28;20178;-58
2021/01/09 02:27:17;;;;;;;7.55;4.93;;;-4.20;99.90;;;;;;2065401;28;20630;-56
2021/01/09 02:28:18;;;;;;;8.73;5.70;;;-4.10;99.90;;;;;;2065077;28;20534;-58
2021/01/09 02:29:22;;;;;;;8.10;5.17;;;-4.10;99.90;;;;;;2065761;28;20194;-56
2021/01/09 02:30:30;;;;;;;8.23;4.90;;;-4.10;99.90;;;;;;2065033;28;20195;-58
2021/01/09 02:31:38;;;;;;;7.75;4.78;;;-4.10;99.90;;;;;;2057775;28;20570;-59
2021/01/09 02:32:50;;;;;;;8.65;5.15;;;-4.00;99.90;;;;;;2058277;28;20176;-58
2021/01/09 02:33:51;;;;;;;7.15;4.40;;;-3.90;99.90;;;;;;2058634;28;20598;-58
2021/01/09 02:35:00;;;;;;;8.35;5.32;;;-3.90;99.90;;;;;;2065076;28;20191;-58
2021/01/09 02:36:02;;;;;;;8.50;5.00;;;-3.90;99.90;;;;;;2065754;28;20229;-59
2021/01/09 02:37:03;;;;;;;8.13;4.70;;;-4.10;99.90;;;;;;2065497;28;20175;-58
2021/01/09 02:38:05;;;;;;;10.93;5.07;;;-4.10;99.90;;;;;;2065010;28;20700;-57
2021/01/09 02:39:07;;;;;;;8.95;5.38;;;-4.10;99.90;;;;;;2064760;28;20189;-55
2021/01/09 02:40:11;;;;;;;9.07;5.05;;;-4.00;99.90;;;;;;2065403;28;20642;-58
2021/01/09 02:41:13;;;;;;;9.90;5.47;;;-4.00;99.90;;;;;;2064464;28;20180;-58
2021/01/09 02:42:15;;;;;;;8.15;5.00;;;-4.00;99.90;;;;;;2064900;28;20183;-58
2021/01/09 02:43:15;;;;;;;9.77;4.97;;;-4.00;99.90;;;;;;2064888;28;20218;-58
2021/01/09 02:44:16;;;;;;;9.53;5.00;;;-4.00;99.90;;;;;;2064890;28;20604;-56
2021/01/09 02:45:17;;;;;;;9.73;5.50;;;-4.00;99.90;;;;;;2065440;28;20198;-57
2021/01/09 02:46:17;;;;;;;10.13;5.67;;;-4.00;99.90;;;;;;2065489;28;20171;-57
2021/01/09 02:47:19;;;;;;;8.17;5.20;;;-3.90;99.90;;;;;;2065441;28;20174;-55
2021/01/09 02:48:19;;;;;;;9.77;4.95;;;-3.90;99.90;;;;;;2065521;28;20170;-59
2021/01/09 02:49:20;;;;;;;8.87;5.33;;;-3.90;99.90;;;;;;2065425;28;20187;-57
2021/01/09 02:50:21;;;;;;;7.00;4.70;;;-3.90;99.90;;;;;;2065571;28;20181;-59
2021/01/09 02:51:21;;;;;;;9.27;5.33;;;-3.80;99.90;;;;;;2065125;28;20551;-58
2021/01/09 02:52:22;;;;;;;7.43;4.97;;;-3.80;99.90;;;;;;2065435;28;20230;-57
2021/01/09 02:53:23;;;;;;;8.17;5.13;;;-3.70;99.90;;;;;;2065222;28;20186;-59
2021/01/09 02:54:23;;;;;;;8.50;5.47;;;-3.70;99.90;;;;;;2065294;28;20659;-57
2021/01/09 02:55:24;;;;;;;9.93;5.80;;;-3.80;99.90;;;;;;2065275;28;20269;-58
2021/01/09 02:56:25;;;;;;;8.10;4.90;;;-3.80;99.90;;;;;;2065361;28;20182;-59
2021/01/09 02:57:25;;;;;;;9.17;5.37;;;-3.80;99.90;;;;;;2065202;28;20650;-58
2021/01/09 02:58:26;;;;;;;9.63;5.43;;;-3.80;99.90;;;;;;2065180;28;20189;-57
2021/01/09 02:59:27;;;;;;;10.70;5.50;;;-3.80;99.90;;;;;;2065310;28;20202;-57
2021/01/09 03:00:27;;;;;;;10.13;5.07;;;-3.70;99.90;;;;;;2065375;28;20634;-58
2021/01/09 03:01:30;;;;;;;7.53;4.80;;;-3.60;99.90;;;;;;2065123;28;20181;-56
2021/01/09 03:02:30;;;;;;;7.45;4.68;;;-3.60;99.90;;;;;;2065411;28;20194;-57
2021/01/09 03:03:31;;;;;;;7.83;4.27;;;-3.70;99.90;;;;;;2065215;28;20224;-57
2021/01/09 03:04:32;;;;;;;7.70;4.50;;;-3.70;99.90;;;;;;2065073;28;20175;-58
2021/01/09 03:05:32;;;;;;;7.43;5.20;;;-3.80;99.90;;;;;;2064813;28;20612;-57
2021/01/09 03:06:33;;;;;;;8.50;5.07;;;-3.80;99.90;;;;;;2065179;28;20182;-58
2021/01/09 03:07:34;;;;;;;8.67;5.20;;;-3.70;99.90;;;;;;2065463;28;20201;-58
2021/01/09 03:08:34;;;;;;;8.57;5.03;;;-3.80;99.90;;;;;;2065168;28;20797;-57
2021/01/09 03:09:35;;;;;;;9.20;4.97;;;-3.80;99.90;;;;;;2065268;28;20191;-58
2021/01/09 03:10:36;;;;;;;8.23;4.47;;;-3.70;99.90;;;;;;2065390;28;20183;-57
2021/01/09 03:11:37;;;;;;;8.43;5.20;;;-3.60;99.90;;;;;;2065180;28;20770;-56
2021/01/09 03:12:37;;;;;;;7.32;4.50;;;-3.60;99.90;;;;;;2065286;28;20187;-54
2021/01/09 03:13:38;;;;;;;7.50;4.80;;;-3.60;99.90;;;;;;2065408;28;20239;-59
2021/01/09 03:14:39;;;;;;;8.30;4.70;;;-3.60;99.90;;;;;;2065193;28;20529;-57
2021/01/09 03:15:39;;;;;;;8.30;4.87;;;-3.50;99.90;;;;;;2065750;28;20174;-57
2021/01/09 03:16:40;;;;;;;10.00;5.37;;;-3.50;99.90;;;;;;2067299;28;20179;-57
2021/01/09 03:17:41;;;;;;;11.70;5.77;;;-3.40;99.90;;;;;;2065269;28;20736;-56
2021/01/09 03:18:42;;;;;;;8.77;5.07;;;-3.50;99.90;;;;;;2065139;28;20187;-54
2021/01/09 03:19:42;;;;;;;11.80;6.13;;;-3.50;99.90;;;;;;2065077;28;20479;-56
2021/01/09 03:20:43;;;;;;;9.90;5.10;;;-3.50;99.90;;;;;;2065110;28;20199;-57
2021/01/09 03:21:44;;;;;;;7.60;5.20;;;-3.60;99.90;;;;;;2065154;28;20210;-54
2021/01/09 03:22:44;;;;;;;9.93;5.40;;;-3.60;99.90;;;;;;2065138;28;20581;-59
2021/01/09 03:23:45;;;;;;;9.53;5.23;;;-3.60;99.90;;;;;;2064935;28;20293;-59
2021/01/09 03:24:46;;;;;;;7.97;4.77;;;-3.50;99.90;;;;;;2065066;28;20278;-55
2021/01/09 03:25:46;;;;;;;9.03;5.73;;;-3.50;99.90;;;;;;2065282;28;20257;-58
2021/01/09 03:26:47;;;;;;;10.00;6.13;;;-3.60;99.90;;;;;;2065203;28;20202;-59
2021/01/09 03:27:48;;;;;;;9.47;5.43;;;-3.50;99.90;;;;;;2065260;28;20685;-57
2021/01/09 03:28:48;;;;;;;9.50;5.27;;;-3.50;99.90;;;;;;2065362;28;20178;-57
2021/01/09 03:29:49;;;;;;;7.33;5.03;;;-3.40;99.90;;;;;;2065379;28;20190;-58
2021/01/09 03:30:50;;;;;;;8.87;5.10;;;-3.40;99.90;;;;;;2064914;28;20178;-57
2021/01/09 03:31:51;;;;;;;9.90;6.47;;;-3.40;99.90;;;;;;2065286;28;20845;-57
2021/01/09 03:32:52;;;;;;;8.67;5.07;;;-3.40;99.90;;;;;;2065151;28;20195;-56
2021/01/09 03:33:52;;;;;;;7.80;5.03;;;-3.30;99.90;;;;;;2065132;28;20666;-55
2021/01/09 03:34:53;;;;;;;9.93;5.20;;;-3.30;99.90;;;;;;2065225;28;20298;-55
2021/01/09 03:35:54;;;;;;;7.10;4.80;;;-3.30;99.90;;;;;;2065097;28;20190;-57
2021/01/09 03:36:54;;;;;;;8.87;5.37;;;-3.30;99.90;;;;;;2064551;28;20178;-55
2021/01/09 03:37:55;;;;;;;9.03;4.60;;;-3.30;99.90;;;;;;2064459;28;20277;-55
2021/01/09 03:38:56;;;;;;;7.60;4.97;;;-3.50;99.90;;;;;;2065187;28;20279;-55
2021/01/09 03:39:56;;;;;;;7.87;4.70;;;-3.60;99.90;;;;;;2065073;28;20225;-59
2021/01/09 03:40:57;;;;;;;8.47;4.77;;;-3.60;99.90;;;;;;2064866;28;20187;-58
2021/01/09 03:41:58;;;;;;;9.47;5.47;;;-3.60;99.90;;;;;;2064938;28;20274;-55
2021/01/09 03:42:58;;;;;;;10.37;5.23;;;-3.60;99.90;;;;;;2065152;28;20174;-55
2021/01/09 03:43:59;;;;;;;7.90;4.93;;;-3.60;99.90;;;;;;2064383;28;20257;-58
2021/01/09 03:45:00;;;;;;;11.23;6.50;;;-3.60;99.90;;;;;;2064534;28;20701;-57
2021/01/09 03:46:01;;;;;;;12.53;5.93;;;-3.50;99.90;;;;;;2065032;28;20207;-58
2021/01/09 03:47:01;;;;;;;8.43;5.30;;;-3.40;99.90;;;;;;2065036;28;20225;-58
2021/01/09 03:48:02;;;;;;;9.50;5.90;;;-3.30;99.90;;;;;;2065688;28;20180;-58
2021/01/09 03:49:03;;;;;;;9.57;5.50;;;-3.40;99.90;;;;;;2073105;28;20181;-59
2021/01/09 03:50:05;;;;;;;7.63;4.90;;;-3.50;99.90;;;;;;2073004;28;20202;-58
2021/01/09 03:51:06;;;;;;;8.05;5.30;;;-3.50;99.90;;;;;;2072823;28;20185;-58
2021/01/09 03:52:06;;;;;;;8.60;4.83;;;-3.50;99.90;;;;;;2072938;28;20662;-58
2021/01/09 03:53:07;;;;;;;8.97;4.73;;;-3.50;99.90;;;;;;2073170;28;20182;-57
2021/01/09 03:54:08;;;;;;;8.17;5.37;;;-3.50;99.90;;;;;;2072986;28;20198;-57
2021/01/09 03:55:10;;;;;;;9.07;5.30;;;-3.50;99.90;;;;;;2073280;28;20176;-59
2021/01/09 03:56:11;;;;;;;9.07;5.43;;;-3.50;99.90;;;;;;2073077;28;20174;-57
2021/01/09 03:57:12;;;;;;;9.88;5.35;;;-3.50;99.90;;;;;;2073063;28;20240;-57
2021/01/09 03:58:13;;;;;;;7.30;4.57;;;-3.40;99.90;;;;;;2073044;28;20331;-57
2021/01/09 03:59:13;;;;;;;8.03;5.17;;;-3.40;99.90;;;;;;2073039;28;20702;-58
2021/01/09 04:00:17;;;;;;;8.67;4.73;;;-3.30;99.90;;;;;;2073209;28;20179;-58
2021/01/09 04:01:18;;;;;;;8.13;4.75;;;-3.30;99.90;;;;;;2072799;28;20170;-58
2021/01/09 04:02:18;;;;;;;7.60;5.20;;;-3.30;99.90;;;;;;2072648;28;20174;-56
2021/01/09 04:03:19;;;;;;;9.40;5.50;;;-3.30;99.90;;;;;;2072356;28;20670;-56
2021/01/09 04:04:20;;;;;;;9.20;5.27;;;-3.30;99.90;;;;;;2073197;28;20259;-57
2021/01/09 04:05:20;;;;;;;7.37;4.53;;;-3.40;99.90;;;;;;2073427;28;20206;-55
2021/01/09 04:06:21;;;;;;;7.20;4.43;;;-3.40;99.90;;;;;;2073545;28;20263;-58
2021/01/09 04:07:22;;;;;;;6.77;4.40;;;-3.40;99.90;;;;;;2073154;28;20266;-59
2021/01/09 04:08:22;;;;;;;8.37;5.07;;;-3.40;99.90;;;;;;2073265;28;20210;-56
2021/01/09 04:09:23;;;;;;;8.80;5.10;;;-3.40;99.90;;;;;;2072983;28;20185;-57
2021/01/09 04:10:24;;;;;;;10.87;4.77;;;-3.40;99.90;;;;;;2073114;28;20181;-59
2021/01/09 04:11:24;;;;;;;8.17;4.63;;;-3.30;99.90;;;;;;2072890;28;20181;-58
2021/01/09 04:12:25;;;;;;;8.37;4.90;;;-3.30;99.90;;;;;;2073150;28;20597;-57
2021/01/09 04:13:26;;;;;;;8.27;5.13;;;-3.20;99.90;;;;;;2072870;28;20173;-58
2021/01/09 04:14:27;;;;;;;10.03;5.47;;;-3.30;99.90;;;;;;2073159;28;20651;-54
2021/01/09 04:15:28;;;;;;;10.00;5.33;;;-3.30;99.90;;;;;;2073123;28;20197;-54
2021/01/09 04:16:28;;;;;;;9.00;4.95;;;-3.30;99.90;;;;;;2072797;28;20602;-57
2021/01/09 04:17:29;;;;;;;7.47;5.00;;;-3.20;99.90;;;;;;2073086;28;20190;-55
2021/01/09 04:18:30;;;;;;;8.13;5.30;;;-3.30;99.90;;;;;;2073185;28;20556;-58
2021/01/09 04:19:31;;;;;;;9.93;5.47;;;-3.30;99.90;;;;;;2073044;28;20209;-56
2021/01/09 04:20:32;;;;;;;9.93;4.97;;;-3.40;99.90;;;;;;2073208;28;20182;-55
2021/01/09 04:21:53;;;;;;;9.07;4.78;;;-3.40;99.90;;;;;;2072875;28;20637;-57
2021/01/09 04:22:53;;;;;;;7.93;4.97;;;-3.40;99.90;;;;;;2073228;28;20182;-57
2021/01/09 04:23:54;;;;;;;8.73;5.00;;;-3.40;99.90;;;;;;2072808;28;20199;-59
2021/01/09 04:24:55;;;;;;;8.07;5.10;;;-3.30;99.90;;;;;;2073155;28;20665;-57
2021/01/09 04:25:56;;;;;;;10.07;5.67;;;-3.30;99.90;;;;;;2073280;28;20188;-59
2021/01/09 04:27:02;;;;;;;8.77;5.37;;;-3.30;99.90;;;;;;2073046;28;20208;-58
2021/01/09 04:28:03;;;;;;;7.68;4.85;;;-3.20;99.90;;;;;;2073138;28;20171;-57
2021/01/09 04:29:04;;;;;;;9.87;5.47;;;-3.20;99.90;;;;;;2073085;28;20189;-58
2021/01/09 04:30:06;;;;;;;8.33;5.43;;;-3.30;99.90;;;;;;2072853;28;20262;-54
2021/01/09 04:31:07;;;;;;;10.40;5.63;;;-3.30;99.90;;;;;;2072736;28;20213;-57
2021/01/09 04:32:07;;;;;;;7.43;4.65;;;-3.30;99.90;;;;;;2073026;28;20272;-56
2021/01/09 04:33:08;;;;;;;9.10;5.20;;;-3.30;99.90;;;;;;2073168;28;20218;-57
2021/01/09 04:34:09;;;;;;;8.73;5.03;;;-3.30;99.90;;;;;;2072759;28;20200;-57
2021/01/09 04:35:10;;;;;;;8.20;5.00;;;-3.20;99.90;;;;;;2073070;28;20203;-58
2021/01/09 04:36:10;;;;;;;7.53;4.70;;;-3.10;99.90;;;;;;2072847;28;20172;-57
2021/01/09 04:37:12;;;;;;;8.40;4.97;;;-3.20;99.90;;;;;;2072990;28;20178;-58
2021/01/09 04:38:12;;;;;;;7.77;5.00;;;-3.30;99.90;;;;;;2072767;28;20173;-59
2021/01/09 04:39:14;;;;;;;8.97;5.50;;;-3.30;99.90;;;;;;2072878;28;20174;-56
2021/01/09 04:40:15;;;;;;;7.85;5.72;;;-3.30;99.90;;;;;;2072796;28;20275;-57
2021/01/09 04:41:20;;;;;;;7.10;5.17;;;-3.30;99.90;;;;;;2072736;28;20194;-55
2021/01/09 04:42:21;;;;;;;8.70;5.35;;;-3.30;99.90;;;;;;2072842;28;20182;-57
2021/01/09 04:43:22;;;;;;;8.53;5.70;;;-3.30;99.90;;;;;;2072910;28;20177;-55
2021/01/09 04:44:23;;;;;;;7.72;5.43;;;-3.20;99.90;;;;;;2072362;28;20223;-56
2021/01/09 04:45:24;;;;;;;7.63;5.27;;;-3.10;99.90;;;;;;2072358;28;20197;-58
2021/01/09 04:46:26;;;;;;;8.43;5.40;;;-3.10;99.90;;;;;;2072768;28;20559;-57
2021/01/09 04:47:30;;;;;;;8.45;5.38;;;-3.10;99.90;;;;;;2072989;28;20208;-56
2021/01/09 04:48:31;;;;;;;7.57;5.30;;;-3.10;99.90;;;;;;2072150;28;20651;-55
2021/01/09 04:49:32;;;;;;;8.93;5.60;;;-3.20;99.90;;;;;;2072397;28;20183;-58
2021/01/09 04:50:36;;;;;;;8.60;5.30;;;-3.20;99.90;;;;;;2072871;28;20189;-56
2021/01/09 04:51:37;;;;;;;9.48;6.15;;;-3.30;99.90;;;;;;2072021;28;20188;-56
2021/01/09 04:52:38;;;;;;;7.35;4.97;;;-3.30;99.90;;;;;;2072201;28;20190;-58
2021/01/09 04:53:40;;;;;;;9.00;5.25;;;-3.30;99.90;;;;;;2072312;28;20197;-58
2021/01/09 04:54:42;;;;;;;9.48;5.65;;;-3.30;99.90;;;;;;2072211;28;20190;-57
2021/01/09 04:55:45;;;;;;;8.35;5.85;;;-3.30;99.90;;;;;;2072750;28;20567;-57
2021/01/09 04:56:50;;;;;;;9.07;6.13;;;-3.20;99.90;;;;;;2072679;28;20193;-58
2021/01/09 04:57:50;;;;;;;9.35;5.32;;;-3.20;99.90;;;;;;2072854;28;20186;-58
2021/01/09 04:58:55;;;;;;;9.10;5.87;;;-3.20;99.90;;;;;;2072827;28;20539;-57
2021/01/09 04:59:55;;;;;;;9.13;6.03;;;-3.30;99.90;;;;;;2072966;28;20208;-55
2021/01/09 05:00:56;;;;;;;10.80;5.80;;;-3.30;99.90;;;;;;2072093;28;20182;-58
2021/01/09 05:01:58;;;;;;;10.53;5.63;;;-3.30;99.90;;;;;;2072217;28;20645;-57
2021/01/09 05:02:59;;;;;;;8.45;6.03;;;-3.30;99.90;;;;;;2072246;28;20262;-58
2021/01/09 05:04:00;;;;;;;8.93;5.57;;;-3.30;99.90;;;;;;2064105;28;20234;-54
2021/01/09 05:05:00;;;;;;;8.87;5.63;;;-3.10;99.90;;;;;;2072230;28;20606;-58
2021/01/09 05:06:01;;;;;;;11.00;5.60;;;-3.10;99.90;;;;;;2073054;28;20182;-57
2021/01/09 05:07:02;;;;;;;7.07;5.10;;;-3.00;99.90;;;;;;2072916;28;20203;-53
2021/01/09 05:08:03;;;;;;;8.83;5.57;;;-3.00;99.90;;;;;;2072010;28;20185;-56
2021/01/09 05:09:05;;;;;;;11.15;5.35;;;-3.00;99.90;;;;;;2072302;28;20173;-56
2021/01/09 05:10:06;;;;;;;8.57;5.78;;;-2.90;99.90;;;;;;2072643;28;20187;-58
2021/01/09 05:11:07;;;;;;;8.60;4.85;;;-2.90;99.90;;;;;;2072274;28;20199;-58
2021/01/09 05:12:09;;;;;;;9.40;5.50;;;-2.90;99.90;;;;;;2071919;28;20256;-58
2021/01/09 05:13:10;;;;;;;10.25;5.80;;;-2.80;99.90;;;;;;2072051;28;20301;-57
2021/01/09 05:14:11;;;;;;;8.33;5.20;;;-2.90;99.90;;;;;;2072500;28;20267;-58
2021/01/09 05:15:12;;;;;;;6.82;4.63;;;-2.90;99.90;;;;;;2072625;28;20202;-59
2021/01/09 05:16:14;;;;;;;8.23;5.28;;;-2.90;99.90;;;;;;2071816;28;20729;-58
2021/01/09 05:17:16;;;;;;;6.97;4.72;;;-2.90;99.90;;;;;;2072045;28;20220;-57
2021/01/09 05:18:17;;;;;;;8.30;5.13;;;-2.90;99.90;;;;;;2072308;28;20181;-58
2021/01/09 05:19:18;;;;;;;7.97;4.97;;;-3.00;99.90;;;;;;2072513;28;20553;-57
2021/01/09 05:20:19;;;;;;;7.07;4.97;;;-3.00;99.90;;;;;;2069530;28;20238;-58